LUF8507 UNNT-UNNT
Flight info
| Callsign | LUF8507 |
|---|---|
| Flight time | 0h 8m |
| Altitude | 34000 |
| Route | ALIRO1K ALIRO R484 RUBID G121 ELSUT L143 IBDAS/K0843F360 L143 GENGA N143 SMK P178 DOSOR DOSOR2T |
| Aircraft | B738/M-SDE2E3FGHIRWXY/LB1 |
Departure
| Time | 2026-04-27 11:21 |
|---|---|
| Airport | Novosibirsk Tolmachevo Airport (UNNT) |
Arrival
| Time | 2026-04-27 11:30 |
|---|---|
| Airport | Novosibirsk Tolmachevo Airport (UNNT) |
| Time | Latitude | Longitude | Altitude | Speed | Heading |
|---|---|---|---|---|---|
| 2026-04-27 11:17 | 54.43301 | 82.63194 | 14338 ft | 382 kts | 60° |
| 2026-04-27 11:18 | 54.44862 | 82.66827 | 13861 ft | 373 kts | 46° |
| 2026-04-27 11:18 | 54.46710 | 82.69836 | 13389 ft | 364 kts | 34° |
| 2026-04-27 11:18 | 54.48815 | 82.72127 | 12937 ft | 353 kts | 24° |
| 2026-04-27 11:18 | 54.50965 | 82.73914 | 12499 ft | 345 kts | 20° |
| 2026-04-27 11:19 | 54.53157 | 82.75564 | 12055 ft | 338 kts | 19° |
| 2026-04-27 11:19 | 54.55275 | 82.77154 | 11631 ft | 333 kts | 19° |
| 2026-04-27 11:19 | 54.57359 | 82.78780 | 11207 ft | 327 kts | 20° |
| 2026-04-27 11:19 | 54.59421 | 82.80453 | 10786 ft | 322 kts | 21° |
| 2026-04-27 11:20 | 54.61408 | 82.82095 | 10492 ft | 312 kts | 21° |
| 2026-04-27 11:20 | 54.63326 | 82.83695 | 10365 ft | 304 kts | 21° |
| 2026-04-27 11:20 | 54.65229 | 82.85278 | 10281 ft | 307 kts | 21° |
| 2026-04-27 11:20 | 54.67143 | 82.86872 | 9996 ft | 306 kts | 22° |
| 2026-04-27 11:21 | 54.69043 | 82.88462 | 9600 ft | 303 kts | 22° |
| 2026-04-27 11:21 | 54.70917 | 82.90030 | 9247 ft | 298 kts | 22° |
| 2026-04-27 11:21 | 54.72783 | 82.91587 | 8890 ft | 294 kts | 22° |
| 2026-04-27 11:21 | 54.74602 | 82.93108 | 8547 ft | 292 kts | 22° |
| 2026-04-27 11:22 | 54.76427 | 82.94641 | 8197 ft | 290 kts | 23° |
| 2026-04-27 11:22 | 54.78225 | 82.96153 | 7852 ft | 287 kts | 23° |
| 2026-04-27 11:22 | 54.80013 | 82.97662 | 7513 ft | 285 kts | 23° |
| 2026-04-27 11:22 | 54.81786 | 82.99168 | 7211 ft | 282 kts | 23° |
| 2026-04-27 11:23 | 54.83539 | 83.00652 | 7094 ft | 284 kts | 23° |
| 2026-04-27 11:23 | 54.85292 | 83.02120 | 6981 ft | 279 kts | 23° |
| 2026-04-27 11:23 | 54.87025 | 83.03579 | 6666 ft | 276 kts | 23° |
| 2026-04-27 11:23 | 54.88746 | 83.05035 | 6180 ft | 276 kts | 23° |
| 2026-04-27 11:24 | 54.90504 | 83.06370 | 5619 ft | 276 kts | 15° |
| 2026-04-27 11:24 | 54.92356 | 83.06798 | 5086 ft | 268 kts | 349° |
| 2026-04-27 11:24 | 54.94004 | 83.05679 | 4817 ft | 251 kts | 322° |
| 2026-04-27 11:24 | 54.95282 | 83.03643 | 4261 ft | 250 kts | 309° |
| 2026-04-27 11:25 | 54.96409 | 83.01399 | 3807 ft | 248 kts | 308° |
| 2026-04-27 11:25 | 54.97539 | 82.99159 | 3403 ft | 244 kts | 309° |
| 2026-04-27 11:25 | 54.98651 | 82.96973 | 3049 ft | 240 kts | 308° |
| 2026-04-27 11:25 | 54.99737 | 82.94810 | 2792 ft | 236 kts | 309° |
| 2026-04-27 11:26 | 55.00806 | 82.92699 | 2533 ft | 228 kts | 309° |
| 2026-04-27 11:26 | 55.01830 | 82.90685 | 2297 ft | 218 kts | 309° |
| 2026-04-27 11:26 | 55.02766 | 82.88670 | 2068 ft | 207 kts | 301° |
| 2026-04-27 11:26 | 55.03213 | 82.86455 | 1978 ft | 187 kts | 270° |
| 2026-04-27 11:27 | 55.03024 | 82.84343 | 1989 ft | 172 kts | 258° |
| 2026-04-27 11:27 | 55.02787 | 82.82328 | 1994 ft | 170 kts | 262° |
| 2026-04-27 11:27 | 55.02608 | 82.80267 | 1825 ft | 169 kts | 263° |
| 2026-04-27 11:27 | 55.02446 | 82.78336 | 1608 ft | 157 kts | 263° |
| 2026-04-27 11:28 | 55.02274 | 82.76452 | 1373 ft | 157 kts | 262° |
| 2026-04-27 11:28 | 55.02113 | 82.74596 | 1155 ft | 155 kts | 263° |
| 2026-04-27 11:28 | 55.01949 | 82.72743 | 943 ft | 151 kts | 262° |
| 2026-04-27 11:28 | 55.01784 | 82.71031 | 801 ft | 137 kts | 263° |
| 2026-04-27 11:29 | 55.01629 | 82.69388 | 626 ft | 137 kts | 263° |
| 2026-04-27 11:29 | 55.01487 | 82.67712 | 420 ft | 143 kts | 264° |
| 2026-04-27 11:29 | 55.01337 | 82.66070 | 353 ft | 123 kts | 263° |
| 2026-04-27 11:29 | 55.01238 | 82.64992 | 353 ft | 57 kts | 262° |
| 2026-04-27 11:30 | 55.01198 | 82.64553 | 351 ft | 27 kts | 263° |
| 2026-04-27 11:30 | 55.01171 | 82.64236 | 352 ft | 25 kts | 261° |
| 2026-04-27 11:30 | 55.01121 | 82.63988 | 350 ft | 16 kts | 195° |
| 2026-04-27 11:30 | 55.01020 | 82.64007 | 352 ft | 11 kts | 167° |
| 2026-04-27 11:31 | 55.00985 | 82.64120 | 353 ft | 11 kts | 103° |
| 2026-04-27 11:31 | 55.00968 | 82.64253 | 353 ft | 10 kts | 103° |
| 2026-04-27 11:31 | 55.00950 | 82.64389 | 353 ft | 13 kts | 103° |
| 2026-04-27 11:31 | 55.00925 | 82.64584 | 353 ft | 19 kts | 102° |
| 2026-04-27 11:32 | 55.00892 | 82.64838 | 353 ft | 23 kts | 103° |
| 2026-04-27 11:32 | 55.00872 | 82.65063 | 353 ft | 13 kts | 82° |
| 2026-04-27 11:32 | 55.00883 | 82.65221 | 353 ft | 12 kts | 88° |
| 2026-04-27 11:32 | 55.00893 | 82.65389 | 355 ft | 14 kts | 80° |
| 2026-04-27 11:33 | 55.00912 | 82.65590 | 356 ft | 19 kts | 82° |
| 2026-04-27 11:33 | 55.00943 | 82.65946 | 357 ft | 23 kts | 81° |
| 2026-04-27 11:33 | 55.00965 | 82.66125 | 356 ft | 22 kts | 70° |
| 2026-04-27 11:33 | 55.01001 | 82.66283 | 356 ft | 11 kts | 63° |
| 2026-04-27 11:34 | 55.01024 | 82.66376 | 356 ft | 3 kts | 94° |
| 2026-04-27 11:34 | 55.01006 | 82.66397 | 356 ft | 3 kts | 156° |
| 2026-04-27 11:34 | 55.00977 | 82.66410 | 356 ft | 3 kts | 171° |
| 2026-04-27 11:34 | 55.00954 | 82.66417 | 356 ft | 2 kts | 171° |
| 2026-04-27 11:35 | 55.00944 | 82.66420 | 356 ft | 0 kts | 170° |
| 2026-04-27 11:35 | 55.00941 | 82.66421 | 356 ft | 0 kts | 170° |